Bradford, Texas
Current Conditions -  °F | °C
As of 4:15 PM on Saturday 25 Oct 2014 (Local Time) from KPSN Reporting Station
Clear Clear  
Wind Chill: 84°   Ceiling: Unl
Heat Index: 85°   Visibility: 10mi
Dew Point: 63°   Wind: 5mph
Humidity: 48%   Direction: 270°W
Pressure: 30.1"   Gusts: NA
Location:  31.935°N, 95.7672°W
Report Text: KPSN 252115Z AUTO 27004KT 10SM CLR 28/17 A3010 RMK AO2 T02890170
Loading
Personal Weather Stations






























Interactive Weather Map
Tropical Storm Tracking
New forecast layout! Learn more

10-Day Weather Forecast

Advertisements
Track Severe Weather on mobile